
Distance (Route):
Temperature : 7.0°C
Humidity : 38.5%
Pressure : 654.6hPa| Receiver | Frames | First received | Last received |
|---|---|---|---|
| AUTORXJP | 112 | 2026-09-05 12:03:27 | 2026-09-05 13:03:31 |
| Receiver | Date | Latitude | Longitude | Direction | Speed | Altitude | Climb | Temperature | Humidity | Pressure | Voltage | Killtimer | Uptime | BKT | XDATA |
|---|---|---|---|---|---|---|---|---|---|---|---|---|---|---|---|
| AUTORXJP | 2026-09-05 13:03:31 | 43.58390 | 4.79675 | 146° | 62km/h | 3837m | -10.5m/s | 7.0°C | 38.5% | 654.6hPa | 0V | 00:00:00 | 00:00:00 | 00:00:00 | |
| AUTORXJP | 2026-09-05 13:03:00 | 43.58808 | 4.79242 | 139° | 64km/h | 4161m | -9.2m/s | 4.9°C | 44.6% | 629.7hPa | 0V | 00:00:00 | 00:00:00 | 00:00:00 | |
| AUTORXJP | 2026-09-05 13:02:29 | 43.59155 | 4.78825 | 144° | 57km/h | 4486m | -9.4m/s | 2.7°C | 36.3% | 605.0hPa | 0V | 00:00:00 | 00:00:00 | 00:00:00 | |
| AUTORXJP | 2026-09-05 13:01:27 | 43.59822 | 4.77983 | 126° | 51km/h | 5108m | -8.4m/s | -1.5°C | 37.1% | 559.4hPa | 0V | 00:00:00 | 00:00:00 | 00:00:00 | |
| AUTORXJP | 2026-09-05 13:00:56 | 43.59987 | 4.77531 | 108° | 42km/h | 5412m | -8.6m/s | -2.7°C | 10.5% | 538.2hPa | 0V | 00:00:00 | 00:00:00 | 00:00:00 | |
| AUTORXJP | 2026-09-05 13:00:25 | 43.60078 | 4.77097 | 96° | 35km/h | 5726m | -11.6m/s | -4.9°C | 12.1% | 516.8hPa | 0V | 00:00:00 | 00:00:00 | 00:00:00 | |
| AUTORXJP | 2026-09-05 12:59:54 | 43.60127 | 4.76780 | 107° | 24km/h | 6054m | -9.9m/s | -7.9°C | 15.8% | 495.7hPa | 0V | 00:00:00 | 00:00:00 | 00:00:00 | |
| AUTORXJP | 2026-09-05 12:59:23 | 43.60184 | 4.76574 | 110° | 20km/h | 6392m | -11.2m/s | -10.6°C | 14.4% | 474.3hPa | 0V | 00:00:00 | 00:00:00 | 00:00:00 | |
| AUTORXJP | 2026-09-05 12:58:52 | 43.60254 | 4.76386 | 125° | 20km/h | 6728m | -9.8m/s | -12.5°C | 14.4% | 453.7hPa | 0V | 00:00:00 | 00:00:00 | 00:00:00 | |
| AUTORXJP | 2026-09-05 12:58:21 | 43.60355 | 4.76215 | 136° | 22km/h | 7062m | -8.1m/s | -14.9°C | 11.6% | 434.2hPa | 0V | 00:00:00 | 00:00:00 | 00:00:00 | |
| AUTORXJP | 2026-09-05 12:57:18 | 43.60709 | 4.75667 | 116° | 33km/h | 7690m | -10.9m/s | -18.2°C | 10.1% | 399.1hPa | 0V | 00:00:00 | 00:00:00 | 00:00:00 | |
| AUTORXJP | 2026-09-05 12:56:47 | 43.60791 | 4.75331 | 102° | 27km/h | 8019m | -10.9m/s | -20.9°C | 10.8% | 381.3hPa | 0V | 00:00:00 | 00:00:00 | 00:00:00 | |
| AUTORXJP | 2026-09-05 12:56:16 | 43.60887 | 4.75092 | 142° | 20km/h | 8339m | -9.8m/s | -23.7°C | 14.9% | 365.0hPa | 0V | 00:00:00 | 00:00:00 | 00:00:00 | |
| AUTORXJP | 2026-09-05 12:55:45 | 43.61059 | 4.74956 | 145° | 24km/h | 8651m | -10.8m/s | -25.9°C | 24.4% | 349.6hPa | 0V | 00:00:00 | 00:00:00 | 00:00:00 | |
| AUTORXJP | 2026-09-05 12:55:14 | 43.61187 | 4.74761 | 134° | 27km/h | 8968m | -9.6m/s | -28.8°C | 50.1% | 334.4hPa | 0V | 00:00:00 | 00:00:00 | 00:00:00 | |
| AUTORXJP | 2026-09-05 12:54:43 | 43.61298 | 4.74590 | 137° | 18km/h | 9293m | -10.4m/s | -31.4°C | 36.3% | 319.4hPa | 0V | 00:00:00 | 00:00:00 | 00:00:00 | |
| AUTORXJP | 2026-09-05 12:54:12 | 43.61406 | 4.74434 | 123° | 18km/h | 9615m | -9.8m/s | -34.1°C | 38.7% | 304.7hPa | 0V | 00:00:00 | 00:00:00 | 00:00:00 | |
| AUTORXJP | 2026-09-05 12:53:41 | 43.61517 | 4.74225 | 120° | 22km/h | 9955m | -11.0m/s | -36.9°C | 36.2% | 290.1hPa | 0V | 00:00:00 | 00:00:00 | 00:00:00 | |
| AUTORXJP | 2026-09-05 12:53:10 | 43.61633 | 4.73992 | 118° | 26km/h | 10299m | -10.5m/s | -39.4°C | 30.1% | 275.9hPa | 0V | 00:00:00 | 00:00:00 | 00:00:00 | |
| AUTORXJP | 2026-09-05 12:52:39 | 43.61750 | 4.73772 | 134° | 20km/h | 10647m | -12.0m/s | -42.0°C | 24.6% | 261.8hPa | 0V | 00:00:00 | 00:00:00 | 00:00:00 | |
| AUTORXJP | 2026-09-05 12:52:08 | 43.61871 | 4.73677 | 165° | 16km/h | 11013m | -11.3m/s | -45.1°C | 28.5% | 247.8hPa | 0V | 00:00:00 | 00:00:00 | 00:00:00 | |
| AUTORXJP | 2026-09-05 12:51:05 | 43.62174 | 4.73574 | 150° | 20km/h | 11754m | -12.0m/s | -51.7°C | 31.0% | 221.0hPa | 0V | 00:00:00 | 00:00:00 | 00:00:00 | |
| AUTORXJP | 2026-09-05 12:50:03 | 43.62488 | 4.73527 | 181° | 20km/h | 12494m | -13.0m/s | -58.0°C | 30.8% | 196.5hPa | 0V | 00:00:00 | 00:00:00 | 00:00:00 | |
| AUTORXJP | 2026-09-05 12:49:32 | 43.62709 | 4.73535 | 183° | 29km/h | 12897m | -14.3m/s | -61.2°C | 19.3% | 184.0hPa | 0V | 00:00:00 | 00:00:00 | 00:00:00 | |
| AUTORXJP | 2026-09-05 12:49:01 | 43.62962 | 4.73484 | 175° | 37km/h | 13306m | -11.6m/s | -63.6°C | 10.5% | 171.8hPa | 0V | 00:00:00 | 00:00:00 | 00:00:00 | |
| AUTORXJP | 2026-09-05 12:48:30 | 43.63241 | 4.73447 | 146° | 24km/h | 13725m | -14.4m/s | -64.6°C | 6.2% | 160.3hPa | 0V | 00:00:00 | 00:00:00 | 00:00:00 | |
| AUTORXJP | 2026-09-05 12:47:59 | 43.63286 | 4.73225 | 85° | 27km/h | 14184m | -14.2m/s | -65.1°C | 1.9% | 148.3hPa | 0V | 00:00:00 | 00:00:00 | 00:00:00 | |
| AUTORXJP | 2026-09-05 12:47:28 | 43.63361 | 4.72889 | 121° | 35km/h | 14664m | -15.6m/s | -65.1°C | 0.3% | 136.8hPa | 0V | 00:00:00 | 00:00:00 | 00:00:00 | |
| AUTORXJP | 2026-09-05 12:46:57 | 43.63509 | 4.72585 | 121° | 31km/h | 15135m | -13.9m/s | -62.7°C | 0.0% | 126.4hPa | 0V | 00:00:00 | 00:00:00 | 00:00:00 | |
| AUTORXJP | 2026-09-05 12:46:26 | 43.63549 | 4.72307 | 88° | 29km/h | 15595m | -16.6m/s | -62.4°C | 0.0% | 117.1hPa | 0V | 00:00:00 | 00:00:00 | 00:00:00 | |
| AUTORXJP | 2026-09-05 12:45:54 | 43.63538 | 4.71884 | 104° | 38km/h | 16087m | -14.0m/s | -63.8°C | 0.0% | 107.8hPa | 0V | 00:00:00 | 00:00:00 | 00:00:00 | |
| AUTORXJP | 2026-09-05 12:45:24 | 43.63664 | 4.71549 | 128° | 40km/h | 16557m | -12.8m/s | -62.9°C | 0.0% | 99.6hPa | 0V | 00:00:00 | 00:00:00 | 00:00:00 | |
| AUTORXJP | 2026-09-05 12:44:52 | 43.63830 | 4.71190 | 135° | 35km/h | 17068m | -16.6m/s | -62.5°C | 0.0% | 91.4hPa | 0V | 00:00:00 | 00:00:00 | 00:00:00 | |
| AUTORXJP | 2026-09-05 12:44:21 | 43.63941 | 4.70984 | 76° | 24km/h | 17595m | -19.3m/s | -60.8°C | 0.0% | 83.7hPa | 0V | 00:00:00 | 00:00:00 | 00:00:00 | |
| AUTORXJP | 2026-09-05 12:43:50 | 43.63969 | 4.70659 | 119° | 27km/h | 18112m | -14.9m/s | -59.4°C | 0.0% | 76.7hPa | 0V | 00:00:00 | 00:00:00 | 00:00:00 | |
| AUTORXJP | 2026-09-05 12:43:19 | 43.64051 | 4.70461 | 142° | 5km/h | 18613m | -16.3m/s | -58.2°C | 0.0% | 70.5hPa | 0V | 00:00:00 | 00:00:00 | 00:00:00 | |
| AUTORXJP | 2026-09-05 12:42:48 | 43.64111 | 4.70395 | 112° | 7km/h | 19120m | -14.5m/s | -59.0°C | 0.0% | 64.8hPa | 0V | 00:00:00 | 00:00:00 | 00:00:00 | |
| AUTORXJP | 2026-09-05 12:42:17 | 43.64157 | 4.70227 | 147° | 5km/h | 19663m | -18.4m/s | -57.2°C | 0.0% | 59.2hPa | 0V | 00:00:00 | 00:00:00 | 00:00:00 | |
| AUTORXJP | 2026-09-05 12:41:46 | 43.64184 | 4.70061 | 139° | 22km/h | 20211m | -19.3m/s | -56.3°C | 0.0% | 54.0hPa | 0V | 00:00:00 | 00:00:00 | 00:00:00 | |
| AUTORXJP | 2026-09-05 12:41:15 | 43.64259 | 4.70137 | 326° | 22km/h | 20754m | -17.4m/s | -56.7°C | 0.0% | 49.3hPa | 0V | 00:00:00 | 00:00:00 | 00:00:00 | |
| AUTORXJP | 2026-09-05 12:40:44 | 43.64218 | 4.70090 | 187° | 2km/h | 21321m | -18.3m/s | -54.8°C | 0.0% | 44.8hPa | 0V | 00:00:00 | 00:00:00 | 00:00:00 | |
| AUTORXJP | 2026-09-05 12:40:13 | 43.64186 | 4.70118 | 334° | 13km/h | 21902m | -24.5m/s | -54.6°C | 0.0% | 40.6hPa | 0V | 00:00:00 | 00:00:00 | 00:00:00 | |
| AUTORXJP | 2026-09-05 12:39:42 | 43.64079 | 4.70117 | 116° | 11km/h | 22545m | -19.6m/s | -55.1°C | 0.0% | 36.4hPa | 0V | 00:00:00 | 00:00:00 | 00:00:00 | |
| AUTORXJP | 2026-09-05 12:39:11 | 43.64128 | 4.70052 | 116° | 7km/h | 23061m | -15.8m/s | -52.7°C | 0.0% | 33.3hPa | 0V | 00:00:00 | 00:00:00 | 00:00:00 | |
| AUTORXJP | 2026-09-05 12:38:40 | 43.64195 | 4.70120 | 226° | 13km/h | 23570m | -16.4m/s | -52.3°C | 0.0% | 30.5hPa | 0V | 00:00:00 | 00:00:00 | 00:00:00 | |
| AUTORXJP | 2026-09-05 12:38:08 | 43.64270 | 4.70207 | 212° | 7km/h | 24128m | -16.8m/s | -52.3°C | 0.0% | 27.7hPa | 0V | 00:00:00 | 00:00:00 | 00:00:00 | |
| AUTORXJP | 2026-09-05 12:37:37 | 43.64257 | 4.70375 | 322° | 16km/h | 24717m | -15.2m/s | -50.9°C | 0.0% | 25.0hPa | 0V | 00:00:00 | 00:00:00 | 00:00:00 | |
| AUTORXJP | 2026-09-05 12:36:35 | 43.64002 | 4.70733 | 319° | 22km/h | 24651m | 5.0m/s | -51.1°C | 0.0% | 25.3hPa | 0V | 00:00:00 | 00:00:00 | 00:00:00 | |
| AUTORXJP | 2026-09-05 12:36:04 | 43.63935 | 4.70911 | 303° | 26km/h | 24470m | 5.9m/s | -51.3°C | 0.0% | 26.1hPa | 0V | 00:00:00 | 00:00:00 | 00:00:00 | |
| AUTORXJP | 2026-09-05 12:35:33 | 43.63936 | 4.71075 | 257° | 20km/h | 24283m | 7.2m/s | -51.5°C | 0.0% | 27.0hPa | 0V | 00:00:00 | 00:00:00 | 00:00:00 | |
| AUTORXJP | 2026-09-05 12:35:02 | 43.64043 | 4.71231 | 205° | 24km/h | 24102m | 5.6m/s | -51.7°C | 0.0% | 27.8hPa | 0V | 00:00:00 | 00:00:00 | 00:00:00 | |
| AUTORXJP | 2026-09-05 12:34:31 | 43.64126 | 4.71267 | 159° | 16km/h | 23927m | 6.0m/s | -51.8°C | 0.0% | 28.7hPa | 0V | 00:00:00 | 00:00:00 | 00:00:00 | |
| AUTORXJP | 2026-09-05 12:34:00 | 43.64202 | 4.71359 | 263° | 11km/h | 23759m | 6.6m/s | -51.9°C | 0.0% | 29.5hPa | 0V | 00:00:00 | 00:00:00 | 00:00:00 | |
| AUTORXJP | 2026-09-05 12:33:29 | 43.64246 | 4.71455 | 261° | 9km/h | 23587m | 5.1m/s | -52.3°C | 0.0% | 30.4hPa | 0V | 00:00:00 | 00:00:00 | 00:00:00 | |
| AUTORXJP | 2026-09-05 12:32:58 | 43.64323 | 4.71533 | 206° | 20km/h | 23422m | 5.4m/s | -52.4°C | 0.0% | 31.3hPa | 0V | 00:00:00 | 00:00:00 | 00:00:00 | |
| AUTORXJP | 2026-09-05 12:32:27 | 43.64375 | 4.71605 | 167° | 16km/h | 23251m | 6.7m/s | -52.3°C | 0.0% | 32.2hPa | 0V | 00:00:00 | 00:00:00 | 00:00:00 | |
| AUTORXJP | 2026-09-05 12:31:56 | 43.64429 | 4.71629 | 162° | 5km/h | 23084m | 5.1m/s | -53.4°C | 0.0% | 33.2hPa | 0V | 00:00:00 | 00:00:00 | 00:00:00 | |
| AUTORXJP | 2026-09-05 12:31:24 | 43.64541 | 4.71584 | 166° | 29km/h | 22915m | 4.9m/s | -54.7°C | 0.0% | 34.1hPa | 0V | 00:00:00 | 00:00:00 | 00:00:00 | |
| AUTORXJP | 2026-09-05 12:30:53 | 43.64593 | 4.71508 | 93° | 13km/h | 22735m | 5.9m/s | -54.6°C | 0.0% | 35.2hPa | 0V | 00:00:00 | 00:00:00 | 00:00:00 | |
| AUTORXJP | 2026-09-05 12:30:22 | 43.64576 | 4.71430 | 9° | 5km/h | 22563m | 6.0m/s | -54.8°C | 0.0% | 36.3hPa | 0V | 00:00:00 | 00:00:00 | 00:00:00 | |
| AUTORXJP | 2026-09-05 12:29:51 | 43.64504 | 4.71352 | 20° | 15km/h | 22394m | 5.5m/s | -54.2°C | 0.0% | 37.4hPa | 0V | 00:00:00 | 00:00:00 | 00:00:00 | |
| AUTORXJP | 2026-09-05 12:29:20 | 43.64366 | 4.71340 | 317° | 20km/h | 22224m | 4.4m/s | -53.7°C | 0.0% | 38.4hPa | 0V | 00:00:00 | 00:00:00 | 00:00:00 | |
| AUTORXJP | 2026-09-05 12:28:49 | 43.64234 | 4.71415 | 297° | 7km/h | 22063m | 5.7m/s | -53.9°C | 0.0% | 39.5hPa | 0V | 00:00:00 | 00:00:00 | 00:00:00 | |
| AUTORXJP | 2026-09-05 12:28:18 | 43.64133 | 4.71486 | 338° | 15km/h | 21903m | 5.8m/s | -54.4°C | 0.0% | 40.6hPa | 0V | 00:00:00 | 00:00:00 | 00:00:00 | |
| AUTORXJP | 2026-09-05 12:27:47 | 43.64079 | 4.71519 | 338° | 7km/h | 21737m | 4.0m/s | -54.7°C | 0.0% | 41.8hPa | 0V | 00:00:00 | 00:00:00 | 00:00:00 | |
| AUTORXJP | 2026-09-05 12:27:16 | 43.64025 | 4.71577 | 332° | 22km/h | 21573m | 4.7m/s | -54.4°C | 0.0% | 42.9hPa | 0V | 00:00:00 | 00:00:00 | 00:00:00 | |
| AUTORXJP | 2026-09-05 12:26:45 | 43.63977 | 4.71623 | 329° | 11km/h | 21409m | 3.9m/s | -54.8°C | 0.0% | 44.1hPa | 0V | 00:00:00 | 00:00:00 | 00:00:00 | |
| AUTORXJP | 2026-09-05 12:26:14 | 43.63979 | 4.71617 | 14° | 5km/h | 21245m | 4.6m/s | -54.5°C | 0.0% | 45.4hPa | 0V | 00:00:00 | 00:00:00 | 00:00:00 | |
| AUTORXJP | 2026-09-05 12:25:43 | 43.63983 | 4.71590 | 98° | 4km/h | 21084m | 6.1m/s | -55.6°C | 0.0% | 46.6hPa | 0V | 00:00:00 | 00:00:00 | 00:00:00 | |
| AUTORXJP | 2026-09-05 12:25:12 | 43.63932 | 4.71495 | 34° | 16km/h | 20921m | 6.4m/s | -55.8°C | 0.0% | 47.9hPa | 0V | 00:00:00 | 00:00:00 | 00:00:00 | |
| AUTORXJP | 2026-09-05 12:24:40 | 43.63793 | 4.71545 | 304° | 22km/h | 20761m | 5.3m/s | -56.4°C | 0.0% | 49.2hPa | 0V | 00:00:00 | 00:00:00 | 00:00:00 | |
| AUTORXJP | 2026-09-05 12:24:09 | 43.63744 | 4.71737 | 250° | 22km/h | 20598m | 4.2m/s | -56.5°C | 0.0% | 50.6hPa | 0V | 00:00:00 | 00:00:00 | 00:00:00 | |
| AUTORXJP | 2026-09-05 12:23:39 | 43.63845 | 4.71892 | 189° | 24km/h | 20424m | 5.8m/s | -56.1°C | 0.0% | 52.1hPa | 0V | 00:00:00 | 00:00:00 | 00:00:00 | |
| AUTORXJP | 2026-09-05 12:23:07 | 43.64010 | 4.71832 | 159° | 29km/h | 20260m | 4.7m/s | -56.0°C | 0.0% | 53.6hPa | 0V | 00:00:00 | 00:00:00 | 00:00:00 | |
| AUTORXJP | 2026-09-05 12:22:36 | 43.64104 | 4.71644 | 102° | 20km/h | 20102m | 4.1m/s | -56.8°C | 0.0% | 55.0hPa | 0V | 00:00:00 | 00:00:00 | 00:00:00 | |
| AUTORXJP | 2026-09-05 12:22:05 | 43.64058 | 4.71383 | 71° | 29km/h | 19946m | 4.1m/s | -56.8°C | 0.0% | 56.5hPa | 0V | 00:00:00 | 00:00:00 | 00:00:00 | |
| AUTORXJP | 2026-09-05 12:21:34 | 43.64030 | 4.71224 | 116° | 9km/h | 19789m | 6.5m/s | -57.1°C | 0.0% | 58.0hPa | 0V | 00:00:00 | 00:00:00 | 00:00:00 | |
| AUTORXJP | 2026-09-05 12:21:03 | 43.64092 | 4.71136 | 137° | 16km/h | 19632m | 3.8m/s | -56.7°C | 0.0% | 59.5hPa | 0V | 00:00:00 | 00:00:00 | 00:00:00 | |
| AUTORXJP | 2026-09-05 12:20:32 | 43.64176 | 4.70996 | 130° | 27km/h | 19477m | 4.5m/s | -56.7°C | 0.0% | 61.1hPa | 0V | 00:00:00 | 00:00:00 | 00:00:00 | |
| AUTORXJP | 2026-09-05 12:20:01 | 43.64245 | 4.70821 | 86° | 20km/h | 19320m | 5.7m/s | -57.6°C | 0.0% | 62.7hPa | 0V | 00:00:00 | 00:00:00 | 00:00:00 | |
| AUTORXJP | 2026-09-05 12:19:30 | 43.64257 | 4.70646 | 77° | 16km/h | 19165m | 4.7m/s | -58.5°C | 0.0% | 64.4hPa | 0V | 00:00:00 | 00:00:00 | 00:00:00 | |
| AUTORXJP | 2026-09-05 12:18:59 | 43.64265 | 4.70569 | 107° | 11km/h | 19013m | 4.3m/s | -58.0°C | 0.0% | 66.0hPa | 0V | 00:00:00 | 00:00:00 | 00:00:00 | |
| AUTORXJP | 2026-09-05 12:18:28 | 43.64368 | 4.70462 | 152° | 15km/h | 18856m | 3.9m/s | -58.0°C | 0.0% | 67.8hPa | 0V | 00:00:00 | 00:00:00 | 00:00:00 | |
| AUTORXJP | 2026-09-05 12:17:56 | 43.64440 | 4.70391 | 94° | 5km/h | 18702m | 5.8m/s | -57.9°C | 0.0% | 69.5hPa | 0V | 00:00:00 | 00:00:00 | 00:00:00 | |
| AUTORXJP | 2026-09-05 12:17:26 | 43.64541 | 4.70280 | 142° | 27km/h | 18550m | 6.2m/s | -58.3°C | 0.0% | 71.3hPa | 0V | 00:00:00 | 00:00:00 | 00:00:00 | |
| AUTORXJP | 2026-09-05 12:16:54 | 43.64684 | 4.70090 | 115° | 20km/h | 18398m | 3.2m/s | -59.2°C | 0.0% | 73.2hPa | 0V | 00:00:00 | 00:00:00 | 00:00:00 | |
| AUTORXJP | 2026-09-05 12:16:23 | 43.64801 | 4.69885 | 125° | 33km/h | 18253m | 3.8m/s | -60.0°C | 0.0% | 75.0hPa | 0V | 00:00:00 | 00:00:00 | 00:00:00 | |
| AUTORXJP | 2026-09-05 12:15:52 | 43.64923 | 4.69628 | 108° | 29km/h | 18110m | 4.5m/s | -59.7°C | 0.0% | 76.8hPa | 0V | 00:00:00 | 00:00:00 | 00:00:00 | |
| AUTORXJP | 2026-09-05 12:15:21 | 43.64977 | 4.69262 | 103° | 37km/h | 17970m | 5.7m/s | -60.2°C | 0.0% | 78.6hPa | 0V | 00:00:00 | 00:00:00 | 00:00:00 | |
| AUTORXJP | 2026-09-05 12:14:50 | 43.65004 | 4.68939 | 69° | 31km/h | 17829m | 5.9m/s | -61.4°C | 0.0% | 80.5hPa | 0V | 00:00:00 | 00:00:00 | 00:00:00 | |
| AUTORXJP | 2026-09-05 12:14:19 | 43.64955 | 4.68658 | 58° | 26km/h | 17680m | 4.7m/s | -60.8°C | 0.0% | 82.5hPa | 0V | 00:00:00 | 00:00:00 | 00:00:00 | |
| AUTORXJP | 2026-09-05 12:13:48 | 43.64849 | 4.68511 | 47° | 16km/h | 17529m | 4.5m/s | -61.0°C | 0.0% | 84.7hPa | 0V | 00:00:00 | 00:00:00 | 00:00:00 | |
| AUTORXJP | 2026-09-05 12:13:17 | 43.64818 | 4.68347 | 96° | 18km/h | 17375m | 5.0m/s | -60.4°C | 0.5% | 86.9hPa | 0V | 00:00:00 | 00:00:00 | 00:00:00 | |
| AUTORXJP | 2026-09-05 12:12:46 | 43.64906 | 4.68119 | 123° | 24km/h | 17236m | 5.8m/s | -61.2°C | 0.8% | 88.9hPa | 0V | 00:00:00 | 00:00:00 | 00:00:00 | |
| AUTORXJP | 2026-09-05 12:12:15 | 43.65037 | 4.67890 | 120° | 37km/h | 17090m | 5.7m/s | -62.0°C | 1.2% | 91.1hPa | 0V | 00:00:00 | 00:00:00 | 00:00:00 | |
| AUTORXJP | 2026-09-05 12:11:44 | 43.65189 | 4.67512 | 116° | 42km/h | 16944m | 3.8m/s | -62.2°C | 1.4% | 93.4hPa | 0V | 00:00:00 | 00:00:00 | 00:00:00 | |
| AUTORXJP | 2026-09-05 12:11:13 | 43.65337 | 4.67133 | 119° | 42km/h | 16795m | 6.3m/s | -63.1°C | 1.6% | 95.8hPa | 0V | 00:00:00 | 00:00:00 | 00:00:00 | |
| AUTORXJP | 2026-09-05 12:10:42 | 43.65480 | 4.66761 | 111° | 29km/h | 16646m | 5.7m/s | -63.4°C | 1.9% | 98.2hPa | 0V | 00:00:00 | 00:00:00 | 00:00:00 | |
| AUTORXJP | 2026-09-05 12:10:11 | 43.65643 | 4.66392 | 120° | 40km/h | 16501m | 4.7m/s | -62.9°C | 2.3% | 100.6hPa | 0V | 00:00:00 | 00:00:00 | 00:00:00 | |
| AUTORXJP | 2026-09-05 12:09:39 | 43.65787 | 4.65991 | 123° | 40km/h | 16361m | 5.3m/s | -63.0°C | 2.5% | 103.0hPa | 0V | 00:00:00 | 00:00:00 | 00:00:00 | |
| AUTORXJP | 2026-09-05 12:09:08 | 43.65904 | 4.65667 | 123° | 33km/h | 16217m | 5.0m/s | -63.0°C | 2.6% | 105.6hPa | 0V | 00:00:00 | 00:00:00 | 00:00:00 | |
| AUTORXJP | 2026-09-05 12:08:38 | 43.66022 | 4.65319 | 113° | 40km/h | 16071m | 4.2m/s | -63.5°C | 2.8% | 108.2hPa | 0V | 00:00:00 | 00:00:00 | 00:00:00 | |
| AUTORXJP | 2026-09-05 12:08:06 | 43.66093 | 4.64876 | 100° | 40km/h | 15923m | 4.6m/s | -63.2°C | 3.2% | 110.9hPa | 0V | 00:00:00 | 00:00:00 | 00:00:00 | |
| AUTORXJP | 2026-09-05 12:07:36 | 43.66057 | 4.64456 | 87° | 40km/h | 15774m | 4.5m/s | -62.9°C | 3.7% | 113.7hPa | 0V | 00:00:00 | 00:00:00 | 00:00:00 | |
| AUTORXJP | 2026-09-05 12:07:04 | 43.66049 | 4.64120 | 98° | 29km/h | 15632m | 6.3m/s | -62.6°C | 4.1% | 116.5hPa | 0V | 00:00:00 | 00:00:00 | 00:00:00 | |
| AUTORXJP | 2026-09-05 12:06:33 | 43.66113 | 4.63861 | 107° | 24km/h | 15485m | 4.7m/s | -63.0°C | 4.6% | 119.3hPa | 0V | 00:00:00 | 00:00:00 | 00:00:00 | |
| AUTORXJP | 2026-09-05 12:06:02 | 43.66150 | 4.63620 | 103° | 18km/h | 15341m | 5.1m/s | -63.1°C | 5.6% | 122.3hPa | 0V | 00:00:00 | 00:00:00 | 00:00:00 | |
| AUTORXJP | 2026-09-05 12:05:31 | 43.66259 | 4.63418 | 138° | 29km/h | 15198m | 3.0m/s | -63.1°C | 6.8% | 125.2hPa | 0V | 00:00:00 | 00:00:00 | 00:00:00 | |
| AUTORXJP | 2026-09-05 12:05:00 | 43.66418 | 4.63144 | 130° | 35km/h | 15060m | 4.5m/s | -63.3°C | 8.2% | 128.2hPa | 0V | 00:00:00 | 00:00:00 | 00:00:00 | |
| AUTORXJP | 2026-09-05 12:04:29 | 43.66596 | 4.62879 | 126° | 20km/h | 14924m | 5.5m/s | -64.4°C | 9.4% | 131.1hPa | 0V | 00:00:00 | 00:00:00 | 00:00:00 | |
| AUTORXJP | 2026-09-05 12:03:58 | 43.66712 | 4.62589 | 126° | 37km/h | 14786m | 3.2m/s | -64.6°C | 10.4% | 134.2hPa | 0V | 00:00:00 | 00:00:00 | 00:00:00 | |
| AUTORXJP | 2026-09-05 12:03:27 | 43.66862 | 4.62301 | 123° | 29km/h | 14646m | 4.9m/s | -64.4°C | 11.8% | 137.4hPa | 0V | 00:00:00 | 00:00:00 | 00:00:00 |